KDHN/DHN METAR and TAF weather

Enter ICAO airport designator
Station Type Date Time Source
KDHN METAR 2019/10/21 01:53 UTC NOAA

KDHN 210153Z AUTO 00000KT CLR 18/17 A3000 RMK AO2 SLP155 T01780167 $


Station Type Date Time Source
KDHN Decoded METAR 2019/10/21 01:53 UTC NOAA

DOTHAN AIRPORT, AL, United States (KDHN) 31-19N 085-27W 113M
Oct 20, 2019 - 09:53 PM EDT / 2019.10.21 0153 UTC
Wind: Calm:0
Sky conditions: clear
Temperature: 64.0 F (17.8 C)
Dew Point: 62.1 F (16.7 C)
Relative Humidity: 93%
Pressure (altimeter): 30 in. Hg (1015 hPa)
ob: KDHN 210153Z AUTO 00000KT CLR 18/17 A3000 RMK AO2 SLP155 T01780167
cycle: 2

Station Type Date Time Source
KDHN TAF 2019/10/20 18:36 UTC NOAA

TAF KDHN 201732Z 2018/2118 VRB05KT P6SM BKN012
FM202000 VRB05KT P6SM SKC

Example: see airport list